Time;durP1;ratioP1;P1;durP2;ratioP2;P2;SDS_P1;SDS_P2;PMS_P1;PMS_P2;Temp;Humidity;BMP_temperature;BMP_pressure;BME280_temperature;BME280_humidity;BME280_pressure;Samples;Min_cycle;Max_cycle;Signal;HPM_P1;HPM_P2
2023/10/28 00:02:22;;;;;;;;;;;;;;;0.74;71.87;98417.09;4904797;29;19970;-80
2023/10/28 00:04:47;;;;;;;;;;;;;;;0.82;72.61;98412.88;4903203;29;19923;-80
2023/10/28 00:07:16;;;;;;;;;;;;;;;0.78;71.76;98417.97;4905765;29;19987;-79
2023/10/28 00:09:42;;;;;;;;;;;;;;;0.83;72.57;98412.03;4897143;29;19924;-79
2023/10/28 00:12:08;;;;;;;;;;;;;;;0.92;72.75;98405.28;4887708;29;20290;-78
2023/10/28 00:14:40;;;;;;;;;;;;;;;0.65;72.29;98404.19;4897539;29;19931;-77
2023/10/28 00:17:06;;;;;;;;;;;;;;;0.48;72.34;98401.47;4896603;29;19959;-77
2023/10/28 00:19:32;;;;;;;;;;;;;;;0.48;72.97;98409.16;4888646;29;19923;-77
2023/10/28 00:21:58;;;;;;;;;;;;;;;0.53;72.61;98402.38;4890428;29;19923;-81
2023/10/28 00:24:25;;;;;;;;;;;;;;;0.76;73.75;98394.91;4904393;29;19974;-80
2023/10/28 00:26:51;;;;;;;;;;;;;;;0.83;71.78;98396.66;4901248;29;19934;-83
2023/10/28 00:29:16;;;;;;;;;;;;;;;0.74;72.84;98388.94;4889658;29;19967;-80
2023/10/28 00:31:44;;;;;;;;;;;;;;;0.71;72.71;98386.34;4922053;29;19930;-79
2023/10/28 00:34:17;;;;;;;;;;;;;;;0.66;72.12;98383.75;4908467;29;19969;-76
2023/10/28 00:36:43;;;;;;;;;;;;;;;0.61;72.12;98390.53;4891170;29;19939;-77
2023/10/28 00:39:10;;;;;;;;;;;;;;;0.58;72.73;98400.72;4901834;29;19927;-76
2023/10/28 00:41:37;;;;;;;;;;;;;;;0.74;72.61;98392.34;4899434;29;19931;-75
2023/10/28 00:44:04;;;;;;;;;;;;;;;0.76;72.70;98389.81;4892265;29;19931;-75
2023/10/28 00:46:31;;;;;;;;;;;;;;;0.85;73.38;98387.28;4901427;29;19962;-76
2023/10/28 00:48:57;;;;;;;;;;;;;;;0.87;72.58;98385.59;4874906;29;19928;-76
2023/10/28 00:51:26;;;;;;;;;;;;;;;0.75;72.75;98391.50;4903359;29;19928;-76
2023/10/28 00:53:52;;;;;;;;;;;;;;;0.66;72.62;98388.88;4914497;29;19930;-74
2023/10/28 00:56:19;;;;;;;;;;;;;;;0.63;72.47;98393.97;4890125;29;19923;-77
2023/10/28 00:58:45;;;;;;;;;;;;;;;0.66;72.47;98388.00;4916085;29;19928;-75
2023/10/28 01:01:13;;;;;;;;;;;;;;;0.55;72.70;98391.31;4905139;29;19923;-77
2023/10/28 01:03:44;;;;;;;;;;;;;;;0.50;72.67;98379.31;4874742;29;19927;-76
2023/10/28 01:06:10;;;;;;;;;;;;;;;0.48;73.02;98384.44;4903719;29;19931;-77
2023/10/28 01:08:48;;;;;;;;;;;;;;;0.59;73.63;98387.09;4890652;29;20395;-77
2023/10/28 01:11:21;;;;;;;;;;;;;;;0.67;73.47;98376.91;4896673;29;19953;-77
2023/10/28 01:13:49;;;;;;;;;;;;;;;0.63;73.11;98372.59;4890197;29;19923;-77
2023/10/28 01:16:17;;;;;;;;;;;;;;;0.68;73.24;98366.66;4889987;29;19933;-78
2023/10/28 01:18:45;;;;;;;;;;;;;;;0.70;73.34;98374.38;4904960;29;19924;-78
2023/10/28 01:21:11;;;;;;;;;;;;;;;0.64;72.38;98374.31;4890755;29;19923;-79
2023/10/28 01:23:38;;;;;;;;;;;;;;;0.56;72.14;98380.22;4915651;29;19931;-78
2023/10/28 01:26:05;;;;;;;;;;;;;;;0.50;72.84;98375.06;4902109;29;19935;-79
2023/10/28 01:28:33;;;;;;;;;;;;;;;0.57;73.17;98374.25;4907148;29;20017;-77
2023/10/28 01:31:00;;;;;;;;;;;;;;;0.62;73.04;98376.88;4905188;29;19924;-77
2023/10/28 01:33:27;;;;;;;;;;;;;;;0.65;73.58;98365.78;4905692;29;20013;-77
2023/10/28 01:35:53;;;;;;;;;;;;;;;0.84;73.36;98362.53;4906288;29;20881;-79
2023/10/28 01:38:23;;;;;;;;;;;;;;;0.88;73.54;98359.16;4890476;29;19923;-77
2023/10/28 01:40:52;;;;;;;;;;;;;;;0.87;73.36;98359.16;4903998;29;20406;-76
2023/10/28 01:43:19;;;;;;;;;;;;;;;0.86;73.53;98367.69;4889513;29;19931;-77
2023/10/28 01:45:45;;;;;;;;;;;;;;;0.85;73.43;98359.13;4889051;29;19983;-78
2023/10/28 01:48:12;;;;;;;;;;;;;;;0.68;72.50;98358.97;4885786;29;19928;-78
2023/10/28 01:50:38;;;;;;;;;;;;;;;0.60;72.57;98358.94;4901651;29;19933;-79
2023/10/28 01:53:03;;;;;;;;;;;;;;;0.60;72.82;98361.50;4893207;29;19967;-78
2023/10/28 01:55:29;;;;;;;;;;;;;;;0.55;73.13;98354.63;4899579;29;19923;-80
2023/10/28 01:57:56;;;;;;;;;;;;;;;0.65;73.54;98348.75;4908138;29;20016;-78
2023/10/28 02:00:30;;;;;;;;;;;;;;;0.70;72.80;98343.66;4887192;29;19931;-78
2023/10/28 02:03:02;;;;;;;;;;;;;;;0.66;72.97;98349.59;4889418;29;20055;-79
2023/10/28 02:05:29;;;;;;;;;;;;;;;0.73;73.15;98347.09;4896678;29;19947;-77
2023/10/28 02:07:55;;;;;;;;;;;;;;;0.74;73.43;98346.25;4886466;29;19931;-77
2023/10/28 02:10:21;;;;;;;;;;;;;;;0.74;72.86;98343.66;4888324;29;19994;-76
2023/10/28 02:12:48;;;;;;;;;;;;;;;0.72;73.61;98339.41;4900992;29;19927;-76
2023/10/28 02:15:14;;;;;;;;;;;;;;;0.67;73.47;98336.78;4898746;29;19927;-75
2023/10/28 02:17:48;;;;;;;;;;;;;;;0.79;73.77;98336.00;4902488;29;20433;-77
2023/10/28 02:20:39;;;;;;;;;;;;;;;0.67;73.00;98329.09;4891549;29;20014;-74
2023/10/28 02:23:14;;;;;;;;;;;;;;;0.72;73.35;98318.91;4903849;29;19923;-76
2023/10/28 02:25:41;;;;;;;;;;;;;;;0.74;72.85;98310.38;4904698;29;19928;-77
2023/10/28 02:28:08;;;;;;;;;;;;;;;0.77;73.63;98319.81;4914297;29;20030;-75
2023/10/28 02:30:43;;;;;;;;;;;;;;;0.80;73.48;98317.25;4889342;29;20018;-75
2023/10/28 02:33:09;;;;;;;;;;;;;;;0.85;73.37;98317.28;4887473;29;20014;-75
2023/10/28 02:35:35;;;;;;;;;;;;;;;0.92;73.32;98319.03;4902897;29;20139;-75
2023/10/28 02:38:01;;;;;;;;;;;;;;;1.06;73.49;98326.81;4886501;29;19923;-74
2023/10/28 02:40:28;;;;;;;;;;;;;;;0.95;73.02;98329.31;4899894;29;19927;-75
2023/10/28 02:42:55;;;;;;;;;;;;;;;1.02;73.88;98331.06;4896506;29;19927;-75
2023/10/28 02:45:21;;;;;;;;;;;;;;;1.05;73.50;98323.41;4901609;29;19963;-75
2023/10/28 02:47:49;;;;;;;;;;;;;;;0.94;73.41;98321.63;4901302;29;19931;-75
2023/10/28 02:50:17;;;;;;;;;;;;;;;1.07;74.10;98310.59;4898579;29;19982;-75
2023/10/28 02:52:43;;;;;;;;;;;;;;;1.27;74.28;98309.81;4903461;29;19923;-77
2023/10/28 02:55:10;;;;;;;;;;;;;;;1.34;73.67;98309.00;4905989;29;19923;-77
2023/10/28 02:57:36;;;;;;;;;;;;;;;1.19;73.22;98312.34;4916809;29;20080;-79
2023/10/28 03:00:08;;;;;;;;;;;;;;;1.09;73.01;98314.00;4903978;29;19931;-80
2023/10/28 03:02:37;;;;;;;;;;;;;;;1.10;73.63;98313.16;4875206;29;19927;-79
2023/10/28 03:05:05;;;;;;;;;;;;;;;1.13;73.29;98299.50;4889776;29;20415;-76
2023/10/28 03:07:31;;;;;;;;;;;;;;;1.08;73.09;98302.06;4888490;29;19995;-74
2023/10/28 03:09:58;;;;;;;;;;;;;;;1.12;73.12;98295.22;4872317;29;19923;-74
2023/10/28 03:12:24;;;;;;;;;;;;;;;1.03;73.63;98294.34;4903670;29;19931;-75
2023/10/28 03:14:52;;;;;;;;;;;;;;;1.05;73.10;98294.34;4886569;29;19948;-76
2023/10/28 03:17:18;;;;;;;;;;;;;;;1.01;73.09;98303.72;4887018;29;19924;-74
2023/10/28 03:19:44;;;;;;;;;;;;;;;1.05;73.46;98284.97;4917509;29;19951;-75
2023/10/28 03:22:11;;;;;;;;;;;;;;;1.06;72.58;98283.25;4902414;29;19930;-75
2023/10/28 03:24:37;;;;;;;;;;;;;;;1.05;72.73;98273.84;4915780;29;19923;-75
2023/10/28 03:27:04;;;;;;;;;;;;;;;1.07;72.87;98263.63;4902244;29;19923;-76
2023/10/28 03:29:34;;;;;;;;;;;;;;;1.18;73.16;98254.25;4888923;29;19931;-75
2023/10/28 03:32:00;;;;;;;;;;;;;;;1.09;73.04;98260.22;4888596;29;19946;-75
2023/10/28 03:34:26;;;;;;;;;;;;;;;1.16;73.26;98259.41;4887940;29;19948;-75
2023/10/28 03:36:53;;;;;;;;;;;;;;;1.10;72.88;98258.53;4883179;29;19942;-75
2023/10/28 03:39:20;;;;;;;;;;;;;;;0.99;72.67;98251.63;4888281;29;19924;-74
2023/10/28 03:41:46;;;;;;;;;;;;;;;0.90;72.42;98260.13;4899556;29;19923;-73
2023/10/28 03:44:12;;;;;;;;;;;;;;;0.86;72.87;98250.69;4902057;29;19923;-73
2023/10/28 03:46:43;;;;;;;;;;;;;;;0.92;72.69;98252.44;4899100;29;20368;-76
2023/10/28 03:49:09;;;;;;;;;;;;;;;0.94;73.25;98253.28;4887249;29;19943;-75
2023/10/28 03:51:36;;;;;;;;;;;;;;;1.14;73.13;98253.41;4901970;29;19928;-73
2023/10/28 03:54:03;;;;;;;;;;;;;;;1.13;72.53;98245.69;4900757;29;19938;-77
2023/10/28 03:56:29;;;;;;;;;;;;;;;1.10;73.28;98251.66;4883918;29;19923;-74
2023/10/28 03:59:00;;;;;;;;;;;;;;;0.67;73.53;98190.84;4901852;29;19935;-74
2023/10/28 04:01:26;;;;;;;;;;;;;;;1.03;72.57;98244.78;4902748;29;19927;-74
2023/10/28 04:03:52;;;;;;;;;;;;;;;1.01;73.11;98239.69;4866653;29;20300;-74
2023/10/28 04:06:20;;;;;;;;;;;;;;;0.97;72.99;98231.97;4913169;29;20013;-74
2023/10/28 04:08:50;;;;;;;;;;;;;;;1.04;73.99;98224.31;4901415;29;19931;-78
2023/10/28 04:11:19;;;;;;;;;;;;;;;0.93;72.83;98223.41;4890473;29;19923;-76
2023/10/28 04:13:49;;;;;;;;;;;;;;;1.10;73.63;98223.50;4888945;29;20425;-76
2023/10/28 04:16:15;;;;;;;;;;;;;;;1.09;72.97;98218.38;4900530;29;19991;-76
2023/10/28 04:18:41;;;;;;;;;;;;;;;0.90;72.02;98224.25;4903501;29;19961;-76
2023/10/28 04:21:09;;;;;;;;;;;;;;;0.80;72.66;98211.41;4904084;29;19923;-75
2023/10/28 04:23:35;;;;;;;;;;;;;;;0.84;73.98;98213.97;4886091;29;19928;-78
2023/10/28 04:26:07;;;;;;;;;;;;;;;1.00;73.59;98225.16;4905660;29;19930;-80
2023/10/28 04:28:33;;;;;;;;;;;;;;;1.08;73.19;98227.75;4889173;29;19938;-81
2023/10/28 04:31:01;;;;;;;;;;;;;;;1.10;73.62;98222.66;4904004;29;19924;-79
2023/10/28 04:33:27;;;;;;;;;;;;;;;0.95;72.54;98216.59;4905458;29;19930;-79
2023/10/28 04:36:00;;;;;;;;;;;;;;;0.86;72.85;98226.81;4905492;29;20018;-78
2023/10/28 04:38:26;;;;;;;;;;;;;;;0.90;73.82;98208.91;4905224;29;20425;-79
2023/10/28 04:40:56;;;;;;;;;;;;;;;0.85;72.51;98209.72;4889858;29;19923;-79
2023/10/28 04:43:22;;;;;;;;;;;;;;;0.81;73.19;98208.84;4905279;29;20031;-79
2023/10/28 04:45:50;;;;;;;;;;;;;;;0.71;73.04;98207.94;4909105;29;19923;-82
2023/10/28 04:48:16;;;;;;;;;;;;;;;0.81;73.82;98203.72;4904228;29;19931;-80
2023/10/28 04:50:44;;;;;;;;;;;;;;;0.93;73.60;98192.66;4919014;29;20093;-80
2023/10/28 04:53:10;;;;;;;;;;;;;;;1.08;73.77;98194.44;4887507;29;19962;-81
2023/10/28 04:55:44;;;;;;;;;;;;;;;1.04;72.83;98193.59;4903330;29;19923;-80
2023/10/28 04:58:10;;;;;;;;;;;;;;;0.94;73.70;98193.53;4885947;29;19935;-80
2023/10/28 05:00:37;;;;;;;;;;;;;;;0.87;73.70;98193.50;4905325;29;19927;-80
2023/10/28 05:03:07;;;;;;;;;;;;;;;0.94;73.91;98188.41;4918866;29;19930;-79
2023/10/28 05:05:37;;;;;;;;;;;;;;;0.94;73.19;98179.00;4905379;29;20310;-79
2023/10/28 05:08:05;;;;;;;;;;;;;;;1.02;74.32;98181.59;4897814;29;19935;-80
2023/10/28 05:10:31;;;;;;;;;;;;;;;0.97;73.05;98171.34;4904266;29;19930;-76
2023/10/28 05:12:57;;;;;;;;;;;;;;;0.99;74.21;98172.22;4908415;29;19924;-76
2023/10/28 05:15:23;;;;;;;;;;;;;;;0.90;73.33;98169.59;4888090;29;19987;-78
2023/10/28 05:17:52;;;;;;;;;;;;;;;0.92;73.41;98169.63;4902426;29;19923;-76
2023/10/28 05:20:18;;;;;;;;;;;;;;;0.96;73.83;98161.94;4892449;29;20020;-80
2023/10/28 05:22:45;;;;;;;;;;;;;;;0.98;73.26;98159.41;4908451;29;19923;-79
2023/10/28 05:25:14;;;;;;;;;;;;;;;0.90;73.21;98149.09;4891443;29;19955;-76
2023/10/28 05:27:40;;;;;;;;;;;;;;;0.84;73.17;98151.66;4888989;29;19923;-76
2023/10/28 05:30:08;;;;;;;;;;;;;;;0.89;73.54;98148.25;4903510;29;20315;-75
2023/10/28 05:32:41;;;;;;;;;;;;;;;1.07;74.01;98156.03;4904296;29;19923;-76
2023/10/28 05:35:11;;;;;;;;;;;;;;;1.10;73.02;98148.34;4904065;29;19955;-75
2023/10/28 05:37:42;;;;;;;;;;;;;;;1.18;74.20;98147.50;4903062;29;20607;-77
2023/10/28 05:40:13;;;;;;;;;;;;;;;1.18;73.50;98139.81;4902750;29;20057;-76
2023/10/28 05:42:39;;;;;;;;;;;;;;;1.18;73.42;98139.81;4903438;29;19928;-77
2023/10/28 05:45:13;;;;;;;;;;;;;;;1.34;74.78;98140.69;4888545;29;20426;-77
2023/10/28 05:47:47;;;;;;;;;;;;;;;1.54;73.71;98145.00;4888002;29;19935;-75
2023/10/28 05:50:26;;;;;;;;;;;;;;;1.55;73.58;98131.31;4903961;29;19938;-76
2023/10/28 05:52:58;;;;;;;;;;;;;;;1.45;72.95;98129.59;4894547;29;19923;-78
2023/10/28 05:55:27;;;;;;;;;;;;;;;1.39;72.95;98135.59;4908497;29;19965;-77
2023/10/28 05:57:53;;;;;;;;;;;;;;;1.37;73.33;98127.03;4900652;29;19928;-77
2023/10/28 06:00:29;;;;;;;;;;;;;;;1.41;74.33;98130.44;4886415;29;19939;-78
2023/10/28 06:03:08;;;;;;;;;;;;;;;1.34;73.62;98129.59;4891493;29;19928;-76
2023/10/28 06:06:00;;;;;;;;;;;;;;;1.23;73.28;98118.44;4905724;29;19927;-76
2023/10/28 06:08:28;;;;;;;;;;;;;;;1.23;73.28;98119.31;4915845;29;20043;-78
2023/10/28 06:10:56;;;;;;;;;;;;;;;1.23;73.28;98123.56;4902875;29;19963;-75
2023/10/28 06:13:32;;;;;;;;;;;;;;;1.25;73.43;98114.19;4904666;29;20035;-74
2023/10/28 06:16:00;;;;;;;;;;;;;;;1.31;73.19;98121.91;4880692;29;19931;-76
2023/10/28 06:18:33;;;;;;;;;;;;;;;1.31;73.74;98109.94;4920764;29;19948;-78
2023/10/28 06:21:03;;;;;;;;;;;;;;;1.32;73.81;98121.91;4903679;29;20056;-77
2023/10/28 06:23:31;;;;;;;;;;;;;;;1.38;73.60;98102.25;4890302;29;19994;-77
2023/10/28 06:26:20;;;;;;;;;;;;;;;1.35;73.77;98103.94;4888590;29;19996;-76
2023/10/28 06:28:52;;;;;;;;;;;;;;;1.48;73.97;98102.25;4904839;29;19990;-76
2023/10/28 06:31:26;;;;;;;;;;;;;;;1.46;73.94;98087.72;4890112;29;19947;-76
2023/10/28 06:34:00;;;;;;;;;;;;;;;1.54;73.96;98093.72;4900385;29;19938;-76
2023/10/28 06:36:47;;;;;;;;;;;;;;;1.47;72.91;98092.84;4902517;29;20259;-76
2023/10/28 06:39:18;;;;;;;;;;;;;;;1.29;73.71;98080.91;4900777;29;19962;-78
2023/10/28 06:41:44;;;;;;;;;;;;;;;1.54;73.56;98090.31;4900117;29;19923;-76
2023/10/28 06:44:12;;;;;;;;;;;;;;;1.53;73.48;98080.91;4873933;29;19923;-77
2023/10/28 06:46:42;;;;;;;;;;;;;;;1.40;73.14;98080.91;4886655;29;19938;-75
2023/10/28 06:49:27;;;;;;;;;;;;;;;1.47;74.05;98082.59;4913895;29;19927;-77
2023/10/28 06:51:58;;;;;;;;;;;;;;;1.69;74.26;98077.47;4888346;29;19970;-76
2023/10/28 06:54:33;;;;;;;;;;;;;;;1.71;73.93;98074.91;4888722;29;20108;-78
2023/10/28 06:57:07;;;;;;;;;;;;;;;1.78;74.36;98069.78;4899030;29;20450;-79
2023/10/28 06:59:44;;;;;;;;;;;;;;;1.91;73.21;98064.63;4885868;29;19923;-75
2023/10/28 07:02:10;;;;;;;;;;;;;;;1.98;74.33;98068.88;4899445;29;19924;-77
2023/10/28 07:04:44;;;;;;;;;;;;;;;2.13;74.12;98062.00;4902789;29;19995;-77
2023/10/28 07:07:20;;;;;;;;;;;;;;;2.21;72.62;98067.97;4888142;29;19929;-76
2023/10/28 07:09:48;;;;;;;;;;;;;;;2.01;72.24;98058.63;4906787;29;20022;-76
2023/10/28 07:15:27;;;;;;;;;;;;;;;1.84;72.67;98063.78;4899270;29;19927;-74
2023/10/28 07:17:58;;;;;;;;;;;;;;;1.71;73.29;98060.38;4914015;29;19923;-73
2023/10/28 07:20:50;;;;;;;;;;;;;;;;;;;;;
2023/10/28 07:24:09;;;;;;;;;;;;;;;;;;;;;
2023/10/28 07:26:39;;;;;;;;;;;;;;;1.88;73.19;98037.25;4903655;29;19930;-74
2023/10/28 07:29:11;;;;;;;;;;;;;;;1.92;73.25;98038.09;4905150;29;20250;-75
2023/10/28 07:31:51;;;;;;;;;;;;;;;1.96;73.38;98042.38;4903336;29;20342;-76
2023/10/28 07:34:18;;;;;;;;;;;;;;;1.90;73.55;98037.25;4872840;29;19930;-75
2023/10/28 07:37:06;;;;;;;;;;;;;;;1.88;73.13;98046.66;4907071;29;19935;-79
2023/10/28 07:39:35;;;;;;;;;;;;;;;1.80;72.58;98036.41;4905975;29;19969;-77
2023/10/28 07:42:06;;;;;;;;;;;;;;;1.82;72.88;98032.13;4901018;29;19934;-79
2023/10/28 07:44:43;;;;;;;;;;;;;;;2.03;73.80;98030.38;4906144;29;19923;-80
2023/10/28 07:47:11;;;;;;;;;;;;;;;1.99;73.13;98034.69;4904615;29;19923;-84
2023/10/28 07:49:37;;;;;;;;;;;;;;;2.19;73.13;98044.03;4888228;29;19938;-81
2023/10/28 07:52:04;;;;;;;;;;;;;;;2.14;72.47;98035.47;4891416;29;19923;-79
2023/10/28 07:54:34;;;;;;;;;;;;;;;2.30;73.19;98033.72;4901707;29;19979;-77
2023/10/28 07:57:03;;;;;;;;;;;;;;;2.50;73.73;98043.91;4903266;29;19939;-76
2023/10/28 07:59:29;;;;;;;;;;;;;;;2.60;73.26;98037.03;4904770;29;20026;-75
2023/10/28 08:02:01;;;;;;;;;;;;;;;2.34;71.85;98038.00;4888077;29;19938;-78
2023/10/28 08:04:33;;;;;;;;;;;;;;;2.10;71.43;98032.91;4890558;29;19985;-76
2023/10/28 08:07:15;;;;;;;;;;;;;;;2.09;72.71;98025.25;4902580;29;19927;-77
2023/10/28 08:09:46;;;;;;;;;;;;;;;2.07;72.55;98029.53;4903192;29;19970;-81
2023/10/28 08:12:20;;;;;;;;;;;;;;;2.15;73.58;98034.63;4902755;29;19923;-78
2023/10/28 08:14:48;;;;;;;;;;;;;;;2.23;72.52;98032.91;4889850;29;19923;-81
2023/10/28 08:17:13;;;;;;;;;;;;;;;2.15;72.40;98032.06;4907407;29;19935;-77
2023/10/28 08:19:40;;;;;;;;;;;;;;;2.20;71.98;98025.19;4899784;29;19923;-80
2023/10/28 08:22:12;;;;;;;;;;;;;;;2.13;71.92;98016.69;4903826;29;19929;-79
2023/10/28 08:24:48;;;;;;;;;;;;;;;2.20;72.49;98025.19;4906721;29;19923;-75
2023/10/28 08:27:15;;;;;;;;;;;;;;;2.04;71.86;98014.13;4906216;29;19963;-78
2023/10/28 08:29:44;;;;;;;;;;;;;;;1.98;72.17;98006.47;4920243;29;19931;-76
2023/10/28 08:32:39;;;;;;;;;;;;;;;1.97;72.55;98000.47;4909971;29;19952;-84
2023/10/28 08:35:10;;;;;;;;;;;;;;;2.10;72.65;98001.28;4905057;29;20025;-76
2023/10/28 08:37:51;;;;;;;;;;;;;;;2.07;72.19;98006.44;4889892;29;19930;-78
2023/10/28 08:41:05;;;;;;;;;;;;;;;2.07;72.05;98007.28;4891267;29;19946;-77
2023/10/28 08:43:36;;;;;;;;;;;;;;;2.02;72.21;98000.44;4904772;29;19923;-79
2023/10/28 08:46:05;;;;;;;;;;;;;;;1.96;72.07;97996.19;4908997;29;19923;-77
2023/10/28 08:48:32;;;;;;;;;;;;;;;1.99;72.69;97993.63;4890996;29;19928;-74
2023/10/28 08:51:02;;;;;;;;;;;;;;;2.03;72.19;97979.94;4900253;29;19923;-74
2023/10/28 08:53:33;;;;;;;;;;;;;;;2.18;72.93;97981.59;4904748;29;19923;-74
2023/10/28 08:56:05;;;;;;;;;;;;;;;2.04;71.54;97976.50;4893851;29;19983;-73
2023/10/28 08:58:31;;;;;;;;;;;;;;;1.94;72.16;97969.69;4904593;29;19935;-73
2023/10/28 09:01:36;;;;;;;;;;;;;;;1.97;72.55;97977.38;4896218;29;19951;-77
2023/10/28 09:04:21;;;;;;;;;;;;;;;1.98;71.69;97965.41;4906004;29;20002;-70
2023/10/28 09:06:53;;;;;;;;;;;;;;;2.07;72.90;97955.97;4892094;29;19945;-71
2023/10/28 09:09:27;;;;;;;;;;;;;;;2.26;72.31;97951.59;4880569;29;19939;-79
2023/10/28 09:11:57;;;;;;;;;;;;;;;2.40;72.60;97951.53;4913174;29;19930;-76
2023/10/28 09:14:29;;;;;;;;;;;;;;;2.21;71.30;97952.47;4912967;29;19923;-77
2023/10/28 09:17:02;;;;;;;;;;;;;;;2.08;72.16;97936.28;4896202;29;19986;-76
2023/10/28 09:19:29;;;;;;;;;;;;;;;2.15;71.34;97942.22;4912354;29;19938;-74
2023/10/28 09:21:55;;;;;;;;;;;;;;;1.93;72.62;97897.03;4907108;29;19924;-76
2023/10/28 09:24:22;;;;;;;;;;;;;;;2.17;72.06;97928.56;4921955;29;20267;-76
2023/10/28 09:26:52;;;;;;;;;;;;;;;2.17;71.98;97926.00;4906578;29;19977;-72
2023/10/28 09:29:37;;;;;;;;;;;;;;;2.19;72.33;97920.84;4880547;29;19928;-71
2023/10/28 09:32:08;;;;;;;;;;;;;;;2.18;72.17;97916.56;4903270;29;19924;-69
2023/10/28 09:34:38;;;;;;;;;;;;;;;2.30;72.10;97916.50;4897779;29;19965;-70
2023/10/28 09:37:08;;;;;;;;;;;;;;;2.42;72.54;97907.88;4880794;29;19923;-69
2023/10/28 09:39:38;;;;;;;;;;;;;;;2.54;71.96;97909.50;4896317;29;20026;-70
2023/10/28 09:42:06;;;;;;;;;;;;;;;2.52;71.36;97906.94;4914969;29;19995;-72
2023/10/28 09:44:34;;;;;;;;;;;;;;;2.53;71.91;97903.53;4898915;29;19963;-68
2023/10/28 09:47:04;;;;;;;;;;;;;;;2.69;73.29;97891.44;4901503;29;20014;-71
2023/10/28 09:49:30;;;;;;;;;;;;;;;2.79;71.99;97888.75;4871958;29;19986;-71
2023/10/28 09:52:05;;;;;;;;;;;;;;;2.77;71.77;97883.66;4911905;29;19911;-71
2023/10/28 09:54:41;;;;;;;;;;;;;;;2.91;72.41;97878.41;4887798;29;19923;-71
2023/10/28 09:57:10;;;;;;;;;;;;;;;3.07;71.55;97870.53;4888458;29;19928;-71
2023/10/28 09:59:44;;;;;;;;;;;;;;;2.90;71.67;97873.25;4905444;29;20018;-68
2023/10/28 10:02:15;;;;;;;;;;;;;;;2.84;71.27;97875.03;4887805;29;19948;-72
2023/10/28 10:04:41;;;;;;;;;;;;;;;2.83;71.97;97875.91;4900555;29;19928;-67
2023/10/28 10:07:09;;;;;;;;;;;;;;;2.92;71.94;97862.13;4913772;29;20002;-70
2023/10/28 10:09:44;;;;;;;;;;;;;;;2.93;70.91;97860.38;4866101;29;20492;-68
2023/10/28 10:12:10;;;;;;;;;;;;;;;2.96;70.91;97853.53;4899607;29;19966;-69
2023/10/28 10:14:45;;;;;;;;;;;;;;;3.05;71.91;97855.16;4886248;29;19928;-68
2023/10/28 10:17:22;;;;;;;;;;;;;;;3.24;71.76;97849.81;4897501;29;19923;-72
2023/10/28 10:19:49;;;;;;;;;;;;;;;3.27;70.84;97844.66;4893197;29;19924;-76
2023/10/28 10:22:27;;;;;;;;;;;;;;;3.17;71.30;97839.59;4913683;29;20355;-78
2023/10/28 10:24:59;;;;;;;;;;;;;;;3.17;70.40;97846.47;4895751;29;19953;-71
2023/10/28 10:27:44;;;;;;;;;;;;;;;3.19;70.80;97837.03;4900794;29;19938;-77
2023/10/28 10:30:16;;;;;;;;;;;;;;;3.38;70.67;97827.38;4907605;29;19934;-72
2023/10/28 10:32:54;;;;;;;;;;;;;;;3.41;70.28;97834.22;4907405;29;19923;-71
2023/10/28 10:35:36;;;;;;;;;;;;;;;3.50;70.50;97834.09;4904464;29;19952;-72
2023/10/28 10:38:13;;;;;;;;;;;;;;;3.46;70.85;97829.84;4905052;29;19927;-73
2023/10/28 10:40:50;;;;;;;;;;;;;;;3.43;70.17;97838.47;4889165;29;19935;-73
2023/10/28 10:43:21;;;;;;;;;;;;;;;3.35;69.65;97827.41;4907370;29;19935;-73
2023/10/28 10:45:57;;;;;;;;;;;;;;;3.29;70.56;97825.75;4920430;29;19978;-75
2023/10/28 10:48:31;;;;;;;;;;;;;;;3.38;70.81;97811.13;4908805;29;19931;-74
2023/10/28 10:51:05;;;;;;;;;;;;;;;3.36;69.45;97813.69;4917072;29;19930;-71
2023/10/28 10:53:58;;;;;;;;;;;;;;;3.34;69.89;97814.59;4906872;29;19929;-73
2023/10/28 10:56:40;;;;;;;;;;;;;;;3.10;69.67;97808.84;4893371;29;19923;-74
2023/10/28 10:59:33;;;;;;;;;;;;;;;3.30;70.65;97795.78;4887260;29;19995;-74
2023/10/28 11:02:02;;;;;;;;;;;;;;;3.36;70.31;97795.69;4870915;29;19946;-73
2023/10/28 11:04:30;;;;;;;;;;;;;;;3.49;70.76;97790.41;4871547;29;19928;-73
2023/10/28 11:07:05;;;;;;;;;;;;;;;3.63;70.42;97788.50;4853567;29;20445;-74
2023/10/28 11:09:45;;;;;;;;;;;;;;;3.69;69.83;97790.13;4888386;29;19932;-73
2023/10/28 11:12:11;;;;;;;;;;;;;;;3.66;69.83;97779.88;4856404;29;19924;-77
2023/10/28 11:14:41;;;;;;;;;;;;;;;3.51;68.76;97773.25;4872862;29;19930;-74
2023/10/28 11:17:18;;;;;;;;;;;;;;;3.46;69.73;97768.13;4890695;29;19971;-77
2023/10/28 11:20:09;;;;;;;;;;;;;;;;;;;;;
2023/10/28 11:22:39;;;;;;;;;;;;;;;3.52;69.80;97768.06;4884209;29;20000;-73
2023/10/28 11:25:22;;;;;;;;;;;;;;;3.42;69.19;97767.34;4855886;29;19924;-73
2023/10/28 11:27:57;;;;;;;;;;;;;;;3.44;68.26;97763.03;4873308;29;19948;-71
2023/10/28 11:30:27;;;;;;;;;;;;;;;3.44;69.53;97763.03;4870350;29;19935;-74
2023/10/28 11:32:54;;;;;;;;;;;;;;;3.21;69.17;97760.72;4869107;29;19928;-76
2023/10/28 11:35:21;;;;;;;;;;;;;;;3.17;69.48;97749.63;4862850;29;19924;-74
2023/10/28 11:37:50;;;;;;;;;;;;;;;3.31;69.58;97749.47;4887280;29;19963;-74
2023/10/28 11:40:22;;;;;;;;;;;;;;;3.40;69.29;97748.50;4861966;29;19928;-69
2023/10/28 11:42:51;;;;;;;;;;;;;;;3.41;69.61;97754.50;4868971;29;19939;-72
2023/10/28 11:45:17;;;;;;;;;;;;;;;3.36;69.73;97746.00;4887492;29;19927;-73
2023/10/28 11:47:43;;;;;;;;;;;;;;;3.43;69.85;97738.19;4886303;29;20081;-73
2023/10/28 11:50:11;;;;;;;;;;;;;;;3.55;69.58;97733.72;4871165;29;19947;-72
2023/10/28 11:52:47;;;;;;;;;;;;;;;;;;;;;
2023/10/28 11:55:20;;;;;;;;;;;;;;;3.17;69.17;97738.50;4870816;29;19931;-72
2023/10/28 11:57:54;;;;;;;;;;;;;;;3.12;69.33;97737.72;4878618;29;19934;-73
2023/10/28 12:00:26;;;;;;;;;;;;;;;3.23;69.60;97737.59;4906165;29;20478;-75
2023/10/28 12:02:55;;;;;;;;;;;;;;;3.24;69.21;97729.00;4899099;29;19990;-77
2023/10/28 12:05:45;;;;;;;;;;;;;;;3.39;69.42;97728.81;4893522;29;19935;-74
2023/10/28 12:08:14;;;;;;;;;;;;;;;3.47;69.14;97728.69;4904223;29;19915;-76
2023/10/28 12:10:46;;;;;;;;;;;;;;;3.53;69.37;97725.22;4899182;29;19930;-77
2023/10/28 12:13:26;;;;;;;;;;;;;;;3.43;69.16;97721.88;4893273;29;20453;-77
2023/10/28 12:16:05;;;;;;;;;;;;;;;3.47;69.78;97723.56;4905089;29;19991;-80
2023/10/28 12:18:32;;;;;;;;;;;;;;;3.50;69.35;97713.22;4907834;29;19931;-77
2023/10/28 12:20:59;;;;;;;;;;;;;;;3.56;69.25;97713.16;4918407;29;19923;-74
2023/10/28 12:26:34;;;;;;;;;;;;;;;3.57;68.46;97702.00;4905990;29;19927;-75
2023/10/28 12:29:00;;;;;;;;;;;;;;;3.60;69.05;97713.94;4910624;29;19928;-78
2023/10/28 12:31:32;;;;;;;;;;;;;;;3.60;68.66;97704.53;4880680;29;19924;-76
2023/10/28 12:34:04;;;;;;;;;;;;;;;3.36;68.15;97704.84;4897742;29;19927;-76
2023/10/28 12:36:30;;;;;;;;;;;;;;;3.21;69.19;97698.19;4906597;29;19934;-74
2023/10/28 12:38:56;;;;;;;;;;;;;;;3.22;69.05;97708.44;4908066;29;19939;-74
2023/10/28 12:41:23;;;;;;;;;;;;;;;3.26;69.71;97694.69;4910800;29;19951;-77
2023/10/28 12:43:49;;;;;;;;;;;;;;;3.38;69.41;97696.25;4909067;29;19924;-75
2023/10/28 12:46:16;;;;;;;;;;;;;;;3.44;69.09;97697.88;4894146;29;19923;-74
2023/10/28 12:48:48;;;;;;;;;;;;;;;3.39;68.84;97695.38;4920011;29;19933;-74
2023/10/28 12:51:14;;;;;;;;;;;;;;;3.33;69.01;97694.63;4905826;29;20409;-74
2023/10/28 12:53:40;;;;;;;;;;;;;;;3.37;69.00;97702.25;4924001;29;19934;-75
2023/10/28 12:56:15;;;;;;;;;;;;;;;3.39;69.35;97687.66;4917083;29;19967;-75
2023/10/28 12:58:41;;;;;;;;;;;;;;;3.45;69.24;97685.00;4905813;29;19953;-72
2023/10/28 13:01:07;;;;;;;;;;;;;;;3.53;69.62;97689.22;4907290;29;19935;-73
2023/10/28 13:03:33;;;;;;;;;;;;;;;3.55;68.88;97683.16;4890495;29;19927;-72
2023/10/28 13:05:59;;;;;;;;;;;;;;;3.44;68.93;97685.00;4907200;29;20018;-71
2023/10/28 13:08:25;;;;;;;;;;;;;;;3.40;69.30;97675.66;4908630;29;20302;-73
2023/10/28 13:10:51;;;;;;;;;;;;;;;3.40;68.91;97680.81;4890566;29;19962;-72
2023/10/28 13:13:23;;;;;;;;;;;;;;;3.40;69.52;97670.53;4894526;29;20732;-73
2023/10/28 13:15:49;;;;;;;;;;;;;;;3.39;68.45;97673.97;4894667;29;19923;-74
2023/10/28 13:18:15;;;;;;;;;;;;;;;3.43;69.81;97675.59;4892568;29;19930;-75
2023/10/28 13:20:43;;;;;;;;;;;;;;;3.45;68.89;97668.72;4907375;29;20330;-72
2023/10/28 13:23:11;;;;;;;;;;;;;;;3.49;69.05;97667.81;4919201;29;19970;-73
2023/10/28 13:25:39;;;;;;;;;;;;;;;3.39;68.82;97668.81;4900974;29;19914;-76
2023/10/28 13:28:24;;;;;;;;;;;;;;;3.47;69.40;97664.41;4919703;29;20364;-74